sensor_id;sensor_type;location;lat;lon;timestamp;temperature;humidity
79187;SHT31;68762;51.980;5.646;2024-02-15T00:00:54;14.4;79.3
79187;SHT31;68762;51.980;5.646;2024-02-15T00:03:26;14.4;79.2
79187;SHT31;68762;51.980;5.646;2024-02-15T00:05:56;14.4;79.2
79187;SHT31;68762;51.980;5.646;2024-02-15T00:08:24;14.5;79.2
79187;SHT31;68762;51.980;5.646;2024-02-15T00:10:55;14.5;79.1
79187;SHT31;68762;51.980;5.646;2024-02-15T00:13:24;14.5;79.1
79187;SHT31;68762;51.980;5.646;2024-02-15T00:15:52;14.5;79.0
79187;SHT31;68762;51.980;5.646;2024-02-15T00:18:22;14.5;79.0
79187;SHT31;68762;51.980;5.646;2024-02-15T00:20:50;14.5;79.0
79187;SHT31;68762;51.980;5.646;2024-02-15T00:23:19;14.5;78.9
79187;SHT31;68762;51.980;5.646;2024-02-15T00:25:48;14.5;79.0
79187;SHT31;68762;51.980;5.646;2024-02-15T00:28:16;14.5;78.9
79187;SHT31;68762;51.980;5.646;2024-02-15T00:30:46;14.5;78.9
79187;SHT31;68762;51.980;5.646;2024-02-15T00:33:15;14.5;78.9
79187;SHT31;68762;51.980;5.646;2024-02-15T00:35:43;14.5;78.9
79187;SHT31;68762;51.980;5.646;2024-02-15T00:38:12;14.5;78.9
79187;SHT31;68762;51.980;5.646;2024-02-15T00:40:41;14.5;78.9
79187;SHT31;68762;51.980;5.646;2024-02-15T00:43:09;14.5;78.9
79187;SHT31;68762;51.980;5.646;2024-02-15T00:45:38;14.5;78.9
79187;SHT31;68762;51.980;5.646;2024-02-15T00:48:08;14.5;79.0
79187;SHT31;68762;51.980;5.646;2024-02-15T00:50:36;14.5;78.9
79187;SHT31;68762;51.980;5.646;2024-02-15T00:53:05;14.5;79.0
79187;SHT31;68762;51.980;5.646;2024-02-15T00:55:34;14.5;79.0
79187;SHT31;68762;51.980;5.646;2024-02-15T00:58:02;14.5;79.0
79187;SHT31;68762;51.980;5.646;2024-02-15T01:00:31;14.5;79.0
79187;SHT31;68762;51.980;5.646;2024-02-15T01:03:00;14.5;79.0
79187;SHT31;68762;51.980;5.646;2024-02-15T01:05:29;14.5;79.0
79187;SHT31;68762;51.980;5.646;2024-02-15T01:08:02;14.5;79.1
79187;SHT31;68762;51.980;5.646;2024-02-15T01:10:32;14.5;79.1
79187;SHT31;68762;51.980;5.646;2024-02-15T01:13:01;14.5;79.1
79187;SHT31;68762;51.980;5.646;2024-02-15T01:15:30;14.5;79.1
79187;SHT31;68762;51.980;5.646;2024-02-15T01:17:58;14.5;79.2
79187;SHT31;68762;51.980;5.646;2024-02-15T01:20:27;14.5;79.1
79187;SHT31;68762;51.980;5.646;2024-02-15T01:22:55;14.5;79.1
79187;SHT31;68762;51.980;5.646;2024-02-15T01:25:26;14.5;79.1
79187;SHT31;68762;51.980;5.646;2024-02-15T01:27:56;14.5;79.1
79187;SHT31;68762;51.980;5.646;2024-02-15T01:30:25;14.5;79.1
79187;SHT31;68762;51.980;5.646;2024-02-15T01:32:57;14.5;79.1
79187;SHT31;68762;51.980;5.646;2024-02-15T01:35:26;14.5;79.1
79187;SHT31;68762;51.980;5.646;2024-02-15T01:37:55;14.5;79.0
79187;SHT31;68762;51.980;5.646;2024-02-15T01:40:24;14.5;79.1
79187;SHT31;68762;51.980;5.646;2024-02-15T01:42:53;14.5;79.0
79187;SHT31;68762;51.980;5.646;2024-02-15T01:45:22;14.5;79.0
79187;SHT31;68762;51.980;5.646;2024-02-15T01:47:52;14.5;78.9
79187;SHT31;68762;51.980;5.646;2024-02-15T01:50:24;14.5;78.9
79187;SHT31;68762;51.980;5.646;2024-02-15T01:52:55;14.5;78.9
79187;SHT31;68762;51.980;5.646;2024-02-15T01:55:25;14.5;78.9
79187;SHT31;68762;51.980;5.646;2024-02-15T01:57:54;14.5;78.8
79187;SHT31;68762;51.980;5.646;2024-02-15T02:00:25;14.5;78.8
79187;SHT31;68762;51.980;5.646;2024-02-15T02:02:56;14.5;78.8
79187;SHT31;68762;51.980;5.646;2024-02-15T02:05:29;14.5;78.8
79187;SHT31;68762;51.980;5.646;2024-02-15T02:07:59;14.5;78.7
79187;SHT31;68762;51.980;5.646;2024-02-15T02:10:31;14.5;78.7
79187;SHT31;68762;51.980;5.646;2024-02-15T02:13:01;14.5;78.7
79187;SHT31;68762;51.980;5.646;2024-02-15T02:15:31;14.5;78.7
79187;SHT31;68762;51.980;5.646;2024-02-15T02:18:00;14.5;78.6
79187;SHT31;68762;51.980;5.646;2024-02-15T02:20:29;14.5;78.6
79187;SHT31;68762;51.980;5.646;2024-02-15T02:23:05;14.5;78.5
79187;SHT31;68762;51.980;5.646;2024-02-15T02:25:36;14.5;78.5
79187;SHT31;68762;51.980;5.646;2024-02-15T02:28:06;14.5;78.4
79187;SHT31;68762;51.980;5.646;2024-02-15T02:30:35;14.5;78.3
79187;SHT31;68762;51.980;5.646;2024-02-15T02:33:10;14.5;78.3
79187;SHT31;68762;51.980;5.646;2024-02-15T02:35:44;14.6;78.2
79187;SHT31;68762;51.980;5.646;2024-02-15T02:38:15;14.6;78.1
79187;SHT31;68762;51.980;5.646;2024-02-15T02:40:43;14.6;78.0
79187;SHT31;68762;51.980;5.646;2024-02-15T02:43:14;14.6;77.9
79187;SHT31;68762;51.980;5.646;2024-02-15T02:45:43;14.6;77.9
79187;SHT31;68762;51.980;5.646;2024-02-15T02:48:14;14.6;77.9
79187;SHT31;68762;51.980;5.646;2024-02-15T02:50:45;14.5;77.8
79187;SHT31;68762;51.980;5.646;2024-02-15T02:53:13;14.5;77.7
79187;SHT31;68762;51.980;5.646;2024-02-15T02:55:42;14.5;77.7
79187;SHT31;68762;51.980;5.646;2024-02-15T02:58:10;14.5;77.7
79187;SHT31;68762;51.980;5.646;2024-02-15T03:00:39;14.5;77.7
79187;SHT31;68762;51.980;5.646;2024-02-15T03:03:09;14.5;77.7
79187;SHT31;68762;51.980;5.646;2024-02-15T03:05:39;14.5;77.7
79187;SHT31;68762;51.980;5.646;2024-02-15T03:08:11;14.5;77.7
79187;SHT31;68762;51.980;5.646;2024-02-15T03:10:39;14.5;77.7
79187;SHT31;68762;51.980;5.646;2024-02-15T03:13:09;14.5;77.7
79187;SHT31;68762;51.980;5.646;2024-02-15T03:15:38;14.5;77.7
79187;SHT31;68762;51.980;5.646;2024-02-15T03:18:08;14.5;77.7
79187;SHT31;68762;51.980;5.646;2024-02-15T03:20:40;14.5;77.5
79187;SHT31;68762;51.980;5.646;2024-02-15T03:23:09;14.5;77.5
79187;SHT31;68762;51.980;5.646;2024-02-15T03:25:38;14.5;77.4
79187;SHT31;68762;51.980;5.646;2024-02-15T03:28:07;14.5;77.3
79187;SHT31;68762;51.980;5.646;2024-02-15T03:30:36;14.6;77.2
79187;SHT31;68762;51.980;5.646;2024-02-15T03:33:04;14.6;77.1
79187;SHT31;68762;51.980;5.646;2024-02-15T03:35:34;14.6;77.1
79187;SHT31;68762;51.980;5.646;2024-02-15T03:38:04;14.6;77.0
79187;SHT31;68762;51.980;5.646;2024-02-15T03:40:33;14.6;77.0
79187;SHT31;68762;51.980;5.646;2024-02-15T03:43:02;14.6;76.9
79187;SHT31;68762;51.980;5.646;2024-02-15T03:45:33;14.6;76.8
79187;SHT31;68762;51.980;5.646;2024-02-15T03:48:01;14.6;76.8
79187;SHT31;68762;51.980;5.646;2024-02-15T03:50:33;14.6;76.8
79187;SHT31;68762;51.980;5.646;2024-02-15T03:53:02;14.6;76.7
79187;SHT31;68762;51.980;5.646;2024-02-15T03:55:31;14.6;76.7
79187;SHT31;68762;51.980;5.646;2024-02-15T03:57:59;14.6;76.7
79187;SHT31;68762;51.980;5.646;2024-02-15T04:00:28;14.5;76.7
79187;SHT31;68762;51.980;5.646;2024-02-15T04:02:57;14.5;76.7
79187;SHT31;68762;51.980;5.646;2024-02-15T04:05:29;14.5;76.8
79187;SHT31;68762;51.980;5.646;2024-02-15T04:07:57;14.5;76.8
79187;SHT31;68762;51.980;5.646;2024-02-15T04:10:30;14.5;76.8
79187;SHT31;68762;51.980;5.646;2024-02-15T04:12:59;14.5;76.8
79187;SHT31;68762;51.980;5.646;2024-02-15T04:15:28;14.5;76.9
79187;SHT31;68762;51.980;5.646;2024-02-15T04:17:56;14.5;77.0
79187;SHT31;68762;51.980;5.646;2024-02-15T04:20:26;14.5;77.0
79187;SHT31;68762;51.980;5.646;2024-02-15T04:22:55;14.4;77.1
79187;SHT31;68762;51.980;5.646;2024-02-15T04:25:26;14.4;77.1
79187;SHT31;68762;51.980;5.646;2024-02-15T04:27:55;14.4;77.2
79187;SHT31;68762;51.980;5.646;2024-02-15T04:30:24;14.4;77.3
79187;SHT31;68762;51.980;5.646;2024-02-15T04:32:52;14.4;77.4
79187;SHT31;68762;51.980;5.646;2024-02-15T04:35:21;14.4;77.5
79187;SHT31;68762;51.980;5.646;2024-02-15T04:37:50;14.4;77.5
79187;SHT31;68762;51.980;5.646;2024-02-15T04:40:20;14.4;77.6
79187;SHT31;68762;51.980;5.646;2024-02-15T04:42:48;14.3;77.7
79187;SHT31;68762;51.980;5.646;2024-02-15T04:45:17;14.3;77.8
79187;SHT31;68762;51.980;5.646;2024-02-15T04:47:48;14.3;78.0
79187;SHT31;68762;51.980;5.646;2024-02-15T04:50:20;14.3;78.1
79187;SHT31;68762;51.980;5.646;2024-02-15T04:52:48;14.2;78.3
79187;SHT31;68762;51.980;5.646;2024-02-15T04:55:20;14.2;78.5
79187;SHT31;68762;51.980;5.646;2024-02-15T04:57:49;14.2;78.7
79187;SHT31;68762;51.980;5.646;2024-02-15T05:00:21;14.2;78.9
79187;SHT31;68762;51.980;5.646;2024-02-15T05:02:52;14.1;79.1
79187;SHT31;68762;51.980;5.646;2024-02-15T05:05:21;14.1;79.3
79187;SHT31;68762;51.980;5.646;2024-02-15T05:07:51;14.1;79.5
79187;SHT31;68762;51.980;5.646;2024-02-15T05:10:21;14.1;79.6
79187;SHT31;68762;51.980;5.646;2024-02-15T05:12:50;14.1;79.7
79187;SHT31;68762;51.980;5.646;2024-02-15T05:15:20;14.0;79.8
79187;SHT31;68762;51.980;5.646;2024-02-15T05:17:51;14.0;80.0
79187;SHT31;68762;51.980;5.646;2024-02-15T05:20:20;14.0;80.1
79187;SHT31;68762;51.980;5.646;2024-02-15T05:22:49;14.0;80.2
79187;SHT31;68762;51.980;5.646;2024-02-15T05:25:17;14.0;80.4
79187;SHT31;68762;51.980;5.646;2024-02-15T05:27:50;13.9;80.5
79187;SHT31;68762;51.980;5.646;2024-02-15T05:30:20;13.9;80.7
79187;SHT31;68762;51.980;5.646;2024-02-15T05:32:49;13.9;80.8
79187;SHT31;68762;51.980;5.646;2024-02-15T05:35:19;13.9;81.0
79187;SHT31;68762;51.980;5.646;2024-02-15T05:37:48;13.9;81.1
79187;SHT31;68762;51.980;5.646;2024-02-15T05:40:19;13.9;81.2
79187;SHT31;68762;51.980;5.646;2024-02-15T05:42:48;13.9;81.3
79187;SHT31;68762;51.980;5.646;2024-02-15T05:45:30;13.9;81.3
79187;SHT31;68762;51.980;5.646;2024-02-15T05:48:04;13.9;81.4
79187;SHT31;68762;51.980;5.646;2024-02-15T05:50:35;13.8;81.5
79187;SHT31;68762;51.980;5.646;2024-02-15T05:53:04;13.8;81.6
79187;SHT31;68762;51.980;5.646;2024-02-15T05:55:34;13.8;81.5
79187;SHT31;68762;51.980;5.646;2024-02-15T05:58:04;13.8;81.6
79187;SHT31;68762;51.980;5.646;2024-02-15T06:00:35;13.8;81.6
79187;SHT31;68762;51.980;5.646;2024-02-15T06:03:05;13.8;81.5
79187;SHT31;68762;51.980;5.646;2024-02-15T06:05:35;13.8;81.6
79187;SHT31;68762;51.980;5.646;2024-02-15T06:08:05;13.8;81.7
79187;SHT31;68762;51.980;5.646;2024-02-15T06:10:34;13.8;81.8
79187;SHT31;68762;51.980;5.646;2024-02-15T06:13:05;13.8;81.8
79187;SHT31;68762;51.980;5.646;2024-02-15T06:15:35;13.8;81.8
79187;SHT31;68762;51.980;5.646;2024-02-15T06:18:06;13.8;81.8
79187;SHT31;68762;51.980;5.646;2024-02-15T06:20:38;13.8;81.9
79187;SHT31;68762;51.980;5.646;2024-02-15T06:23:08;13.8;81.8
79187;SHT31;68762;51.980;5.646;2024-02-15T06:25:39;13.8;81.7
79187;SHT31;68762;51.980;5.646;2024-02-15T06:28:07;13.8;81.7
79187;SHT31;68762;51.980;5.646;2024-02-15T06:30:46;13.9;81.7
79187;SHT31;68762;51.980;5.646;2024-02-15T06:33:33;13.9;81.6
79187;SHT31;68762;51.980;5.646;2024-02-15T06:36:17;13.9;81.5
79187;SHT31;68762;51.980;5.646;2024-02-15T06:39:02;13.9;81.5
79187;SHT31;68762;51.980;5.646;2024-02-15T06:41:47;13.9;81.5
79187;SHT31;68762;51.980;5.646;2024-02-15T06:44:16;13.9;81.6
79187;SHT31;68762;51.980;5.646;2024-02-15T06:46:44;13.9;81.6
79187;SHT31;68762;51.980;5.646;2024-02-15T06:49:13;13.9;81.6
79187;SHT31;68762;51.980;5.646;2024-02-15T06:51:41;13.9;81.5
79187;SHT31;68762;51.980;5.646;2024-02-15T06:54:10;13.9;81.5
79187;SHT31;68762;51.980;5.646;2024-02-15T06:56:39;13.9;81.5
79187;SHT31;68762;51.980;5.646;2024-02-15T06:59:08;13.9;81.5
79187;SHT31;68762;51.980;5.646;2024-02-15T07:01:40;13.9;81.5
79187;SHT31;68762;51.980;5.646;2024-02-15T07:04:09;13.9;81.5
79187;SHT31;68762;51.980;5.646;2024-02-15T07:06:39;13.9;81.4
79187;SHT31;68762;51.980;5.646;2024-02-15T07:09:11;13.9;81.4
79187;SHT31;68762;51.980;5.646;2024-02-15T07:11:41;13.9;81.3
79187;SHT31;68762;51.980;5.646;2024-02-15T07:14:10;13.9;81.3
79187;SHT31;68762;51.980;5.646;2024-02-15T07:16:39;13.9;81.3
79187;SHT31;68762;51.980;5.646;2024-02-15T07:19:08;13.9;81.3
79187;SHT31;68762;51.980;5.646;2024-02-15T07:21:37;14.0;81.3
79187;SHT31;68762;51.980;5.646;2024-02-15T07:24:06;14.0;81.3
79187;SHT31;68762;51.980;5.646;2024-02-15T07:26:36;14.0;81.3
79187;SHT31;68762;51.980;5.646;2024-02-15T07:29:05;14.0;81.2
79187;SHT31;68762;51.980;5.646;2024-02-15T07:31:34;14.0;81.3
79187;SHT31;68762;51.980;5.646;2024-02-15T07:34:03;14.0;81.3
79187;SHT31;68762;51.980;5.646;2024-02-15T07:36:31;14.0;81.4
79187;SHT31;68762;51.980;5.646;2024-02-15T07:39:00;14.0;81.4
79187;SHT31;68762;51.980;5.646;2024-02-15T07:41:29;14.0;81.4
79187;SHT31;68762;51.980;5.646;2024-02-15T07:43:59;14.0;81.4
79187;SHT31;68762;51.980;5.646;2024-02-15T07:46:28;14.0;81.5
79187;SHT31;68762;51.980;5.646;2024-02-15T07:48:57;14.0;81.5
79187;SHT31;68762;51.980;5.646;2024-02-15T07:51:26;14.0;81.6
79187;SHT31;68762;51.980;5.646;2024-02-15T07:53:55;14.0;81.7
79187;SHT31;68762;51.980;5.646;2024-02-15T07:56:23;13.9;81.8
79187;SHT31;68762;51.980;5.646;2024-02-15T07:58:52;13.9;81.9
79187;SHT31;68762;51.980;5.646;2024-02-15T08:01:21;13.9;82.0
79187;SHT31;68762;51.980;5.646;2024-02-15T08:03:50;13.9;82.1
79187;SHT31;68762;51.980;5.646;2024-02-15T08:06:19;13.9;82.2
79187;SHT31;68762;51.980;5.646;2024-02-15T08:08:50;13.9;82.3
79187;SHT31;68762;51.980;5.646;2024-02-15T08:11:18;13.9;82.3
79187;SHT31;68762;51.980;5.646;2024-02-15T08:13:48;13.9;82.4
79187;SHT31;68762;51.980;5.646;2024-02-15T08:16:23;13.9;82.4
79187;SHT31;68762;51.980;5.646;2024-02-15T08:18:54;13.9;82.4
79187;SHT31;68762;51.980;5.646;2024-02-15T08:21:27;13.9;82.4
79187;SHT31;68762;51.980;5.646;2024-02-15T08:24:00;13.9;82.5
79187;SHT31;68762;51.980;5.646;2024-02-15T08:26:32;14.0;82.5
79187;SHT31;68762;51.980;5.646;2024-02-15T08:29:01;14.0;82.6
79187;SHT31;68762;51.980;5.646;2024-02-15T08:31:32;14.0;82.6
79187;SHT31;68762;51.980;5.646;2024-02-15T08:34:02;14.0;82.5
79187;SHT31;68762;51.980;5.646;2024-02-15T08:36:32;14.0;82.5
79187;SHT31;68762;51.980;5.646;2024-02-15T08:39:02;14.0;82.6
79187;SHT31;68762;51.980;5.646;2024-02-15T08:41:32;14.0;82.5
79187;SHT31;68762;51.980;5.646;2024-02-15T08:44:01;14.0;82.5
79187;SHT31;68762;51.980;5.646;2024-02-15T08:46:35;14.0;82.5
79187;SHT31;68762;51.980;5.646;2024-02-15T08:49:04;14.1;82.4
79187;SHT31;68762;51.980;5.646;2024-02-15T08:51:33;14.1;82.4
79187;SHT31;68762;51.980;5.646;2024-02-15T08:54:02;14.1;82.4
79187;SHT31;68762;51.980;5.646;2024-02-15T08:56:30;14.1;82.5
79187;SHT31;68762;51.980;5.646;2024-02-15T08:59:00;14.1;82.5
79187;SHT31;68762;51.980;5.646;2024-02-15T09:01:28;14.1;82.5
79187;SHT31;68762;51.980;5.646;2024-02-15T09:03:57;14.1;82.6
79187;SHT31;68762;51.980;5.646;2024-02-15T09:06:25;14.1;82.6
79187;SHT31;68762;51.980;5.646;2024-02-15T09:08:56;14.1;82.6
79187;SHT31;68762;51.980;5.646;2024-02-15T09:11:30;14.1;82.5
79187;SHT31;68762;51.980;5.646;2024-02-15T09:14:01;14.1;82.5
79187;SHT31;68762;51.980;5.646;2024-02-15T09:16:29;14.1;82.5
79187;SHT31;68762;51.980;5.646;2024-02-15T09:19:00;14.1;82.6
79187;SHT31;68762;51.980;5.646;2024-02-15T09:21:28;14.1;82.5
79187;SHT31;68762;51.980;5.646;2024-02-15T09:23:57;14.1;82.6
79187;SHT31;68762;51.980;5.646;2024-02-15T09:26:26;14.1;82.6
79187;SHT31;68762;51.980;5.646;2024-02-15T09:28:57;14.1;82.6
79187;SHT31;68762;51.980;5.646;2024-02-15T09:31:25;14.1;82.6
79187;SHT31;68762;51.980;5.646;2024-02-15T09:33:56;14.1;82.7
79187;SHT31;68762;51.980;5.646;2024-02-15T09:36:24;14.1;82.7
79187;SHT31;68762;51.980;5.646;2024-02-15T09:38:55;14.1;82.6
79187;SHT31;68762;51.980;5.646;2024-02-15T09:41:25;14.1;82.6
79187;SHT31;68762;51.980;5.646;2024-02-15T09:43:54;14.1;82.5
79187;SHT31;68762;51.980;5.646;2024-02-15T09:46:22;14.1;82.4
79187;SHT31;68762;51.980;5.646;2024-02-15T09:48:56;14.1;82.4
79187;SHT31;68762;51.980;5.646;2024-02-15T09:51:31;14.1;82.3
79187;SHT31;68762;51.980;5.646;2024-02-15T09:54:02;14.1;82.3
79187;SHT31;68762;51.980;5.646;2024-02-15T09:56:34;14.1;82.4
79187;SHT31;68762;51.980;5.646;2024-02-15T09:59:04;14.1;82.3
79187;SHT31;68762;51.980;5.646;2024-02-15T10:01:34;14.1;82.2
79187;SHT31;68762;51.980;5.646;2024-02-15T10:04:07;14.1;82.0
79187;SHT31;68762;51.980;5.646;2024-02-15T10:06:35;14.1;81.9
79187;SHT31;68762;51.980;5.646;2024-02-15T10:09:47;14.1;81.8
79187;SHT31;68762;51.980;5.646;2024-02-15T10:12:16;14.1;81.5
79187;SHT31;68762;51.980;5.646;2024-02-15T10:14:50;14.1;81.4
79187;SHT31;68762;51.980;5.646;2024-02-15T10:17:19;14.1;81.5
79187;SHT31;68762;51.980;5.646;2024-02-15T10:20:03;14.1;81.5
79187;SHT31;68762;51.980;5.646;2024-02-15T10:22:32;14.1;81.4
79187;SHT31;68762;51.980;5.646;2024-02-15T10:25:19;14.1;81.5
79187;SHT31;68762;51.980;5.646;2024-02-15T10:27:49;14.1;81.4
79187;SHT31;68762;51.980;5.646;2024-02-15T10:30:19;14.1;81.4
79187;SHT31;68762;51.980;5.646;2024-02-15T10:32:48;14.2;81.3
79187;SHT31;68762;51.980;5.646;2024-02-15T10:35:22;14.2;81.5
79187;SHT31;68762;51.980;5.646;2024-02-15T10:37:51;14.2;81.5
79187;SHT31;68762;51.980;5.646;2024-02-15T10:40:20;14.2;81.2
79187;SHT31;68762;51.980;5.646;2024-02-15T10:42:51;14.3;81.3
79187;SHT31;68762;51.980;5.646;2024-02-15T10:45:23;14.3;81.1
79187;SHT31;68762;51.980;5.646;2024-02-15T10:47:52;14.3;80.8
79187;SHT31;68762;51.980;5.646;2024-02-15T10:50:20;14.3;80.8
79187;SHT31;68762;51.980;5.646;2024-02-15T10:52:54;14.4;80.8
79187;SHT31;68762;51.980;5.646;2024-02-15T10:55:30;14.4;80.4
79187;SHT31;68762;51.980;5.646;2024-02-15T10:58:02;14.4;80.4
79187;SHT31;68762;51.980;5.646;2024-02-15T11:00:33;14.5;80.3
79187;SHT31;68762;51.980;5.646;2024-02-15T11:03:05;14.5;80.0
79187;SHT31;68762;51.980;5.646;2024-02-15T11:05:37;14.5;79.7
79187;SHT31;68762;51.980;5.646;2024-02-15T11:08:08;14.6;79.7
79187;SHT31;68762;51.980;5.646;2024-02-15T11:10:39;14.6;79.5
79187;SHT31;68762;51.980;5.646;2024-02-15T11:13:10;14.7;79.2
79187;SHT31;68762;51.980;5.646;2024-02-15T11:15:44;14.7;79.1
79187;SHT31;68762;51.980;5.646;2024-02-15T11:21:07;14.8;78.8
79187;SHT31;68762;51.980;5.646;2024-02-15T11:23:36;14.9;78.8
79187;SHT31;68762;51.980;5.646;2024-02-15T11:26:10;14.9;78.1
79187;SHT31;68762;51.980;5.646;2024-02-15T11:28:45;15.0;78.2
79187;SHT31;68762;51.980;5.646;2024-02-15T11:31:55;15.0;78.2
79187;SHT31;68762;51.980;5.646;2024-02-15T11:34:48;15.1;77.7
79187;SHT31;68762;51.980;5.646;2024-02-15T11:37:53;15.1;77.6
79187;SHT31;68762;51.980;5.646;2024-02-15T11:40:23;15.1;77.5
79187;SHT31;68762;51.980;5.646;2024-02-15T11:42:55;15.2;77.6
79187;SHT31;68762;51.980;5.646;2024-02-15T11:45:26;15.2;77.3
79187;SHT31;68762;51.980;5.646;2024-02-15T11:47:59;15.2;77.2
79187;SHT31;68762;51.980;5.646;2024-02-15T11:50:35;15.3;77.4
79187;SHT31;68762;51.980;5.646;2024-02-15T11:53:05;15.3;76.6
79187;SHT31;68762;51.980;5.646;2024-02-15T11:55:36;15.4;76.8
79187;SHT31;68762;51.980;5.646;2024-02-15T11:58:07;15.4;76.9
79187;SHT31;68762;51.980;5.646;2024-02-15T12:00:45;15.4;76.9
79187;SHT31;68762;51.980;5.646;2024-02-15T12:03:32;15.5;76.4
79187;SHT31;68762;51.980;5.646;2024-02-15T12:06:18;15.5;76.7
79187;SHT31;68762;51.980;5.646;2024-02-15T12:09:04;15.6;76.6
79187;SHT31;68762;51.980;5.646;2024-02-15T12:11:58;15.6;76.1
79187;SHT31;68762;51.980;5.646;2024-02-15T12:14:44;15.7;75.4
79187;SHT31;68762;51.980;5.646;2024-02-15T12:17:29;15.7;75.1
79187;SHT31;68762;51.980;5.646;2024-02-15T12:20:14;15.8;74.7
79187;SHT31;68762;51.980;5.646;2024-02-15T12:22:48;15.8;75.2
79187;SHT31;68762;51.980;5.646;2024-02-15T12:25:17;15.9;75.1
79187;SHT31;68762;51.980;5.646;2024-02-15T12:27:54;15.9;75.1
79187;SHT31;68762;51.980;5.646;2024-02-15T12:30:24;16.0;74.8
79187;SHT31;68762;51.980;5.646;2024-02-15T12:33:10;16.1;74.9
79187;SHT31;68762;51.980;5.646;2024-02-15T12:35:44;16.1;74.3
79187;SHT31;68762;51.980;5.646;2024-02-15T12:38:14;16.2;73.6
79187;SHT31;68762;51.980;5.646;2024-02-15T12:40:43;16.3;74.1
79187;SHT31;68762;51.980;5.646;2024-02-15T12:43:13;16.4;74.2
79187;SHT31;68762;51.980;5.646;2024-02-15T12:45:42;16.5;74.6
79187;SHT31;68762;51.980;5.646;2024-02-15T12:48:11;16.6;72.8
79187;SHT31;68762;51.980;5.646;2024-02-15T12:50:41;16.7;71.9
79187;SHT31;68762;51.980;5.646;2024-02-15T12:53:12;16.8;72.0
79187;SHT31;68762;51.980;5.646;2024-02-15T12:55:40;16.8;71.1
79187;SHT31;68762;51.980;5.646;2024-02-15T12:58:13;16.9;71.9
79187;SHT31;68762;51.980;5.646;2024-02-15T13:00:43;16.9;71.1
79187;SHT31;68762;51.980;5.646;2024-02-15T13:03:12;17.0;71.1
79187;SHT31;68762;51.980;5.646;2024-02-15T13:05:46;17.0;70.3
79187;SHT31;68762;51.980;5.646;2024-02-15T13:08:15;17.1;69.8
79187;SHT31;68762;51.980;5.646;2024-02-15T13:10:44;17.1;70.6
79187;SHT31;68762;51.980;5.646;2024-02-15T13:13:15;17.1;69.8
79187;SHT31;68762;51.980;5.646;2024-02-15T13:15:44;17.1;69.2
79187;SHT31;68762;51.980;5.646;2024-02-15T13:18:13;17.1;69.1
79187;SHT31;68762;51.980;5.646;2024-02-15T13:20:43;17.2;68.7
79187;SHT31;68762;51.980;5.646;2024-02-15T13:23:16;17.2;68.7
79187;SHT31;68762;51.980;5.646;2024-02-15T13:25:49;17.2;69.2
79187;SHT31;68762;51.980;5.646;2024-02-15T13:28:20;17.2;69.8
79187;SHT31;68762;51.980;5.646;2024-02-15T13:30:50;17.2;69.5
79187;SHT31;68762;51.980;5.646;2024-02-15T13:33:22;17.3;68.8
79187;SHT31;68762;51.980;5.646;2024-02-15T13:35:52;17.3;68.9
79187;SHT31;68762;51.980;5.646;2024-02-15T13:38:23;17.3;69.0
79187;SHT31;68762;51.980;5.646;2024-02-15T13:40:53;17.4;68.9
79187;SHT31;68762;51.980;5.646;2024-02-15T13:43:23;17.4;68.3
79187;SHT31;68762;51.980;5.646;2024-02-15T13:45:51;17.4;67.5
79187;SHT31;68762;51.980;5.646;2024-02-15T13:48:20;17.4;68.2
79187;SHT31;68762;51.980;5.646;2024-02-15T13:50:51;17.4;68.5
79187;SHT31;68762;51.980;5.646;2024-02-15T13:53:21;17.5;69.0
79187;SHT31;68762;51.980;5.646;2024-02-15T13:55:51;17.5;69.1
79187;SHT31;68762;51.980;5.646;2024-02-15T13:58:20;17.5;68.2
79187;SHT31;68762;51.980;5.646;2024-02-15T14:00:51;17.6;69.3
79187;SHT31;68762;51.980;5.646;2024-02-15T14:03:20;17.6;69.5
79187;SHT31;68762;51.980;5.646;2024-02-15T14:05:51;17.7;68.2
79187;SHT31;68762;51.980;5.646;2024-02-15T14:08:19;17.9;67.6
79187;SHT31;68762;51.980;5.646;2024-02-15T14:10:49;18.0;68.6
79187;SHT31;68762;51.980;5.646;2024-02-15T14:13:18;18.1;67.2
79187;SHT31;68762;51.980;5.646;2024-02-15T14:15:49;18.2;66.3
79187;SHT31;68762;51.980;5.646;2024-02-15T14:18:18;18.3;65.5
79187;SHT31;68762;51.980;5.646;2024-02-15T14:20:47;18.4;65.8
79187;SHT31;68762;51.980;5.646;2024-02-15T14:23:17;18.4;65.9
79187;SHT31;68762;51.980;5.646;2024-02-15T14:25:46;18.5;66.2
79187;SHT31;68762;51.980;5.646;2024-02-15T14:28:16;18.5;65.4
79187;SHT31;68762;51.980;5.646;2024-02-15T14:30:45;18.5;65.2
79187;SHT31;68762;51.980;5.646;2024-02-15T14:33:29;18.6;64.5
79187;SHT31;68762;51.980;5.646;2024-02-15T14:35:58;18.6;64.6
79187;SHT31;68762;51.980;5.646;2024-02-15T14:38:27;18.6;64.9
79187;SHT31;68762;51.980;5.646;2024-02-15T14:40:56;18.6;64.7
79187;SHT31;68762;51.980;5.646;2024-02-15T14:43:27;18.6;64.3
79187;SHT31;68762;51.980;5.646;2024-02-15T14:45:56;18.6;64.7
79187;SHT31;68762;51.980;5.646;2024-02-15T14:48:27;18.6;65.0
79187;SHT31;68762;51.980;5.646;2024-02-15T14:50:57;18.5;64.3
79187;SHT31;68762;51.980;5.646;2024-02-15T14:53:27;18.5;65.0
79187;SHT31;68762;51.980;5.646;2024-02-15T14:55:55;18.5;64.4
79187;SHT31;68762;51.980;5.646;2024-02-15T14:58:24;18.4;64.3
79187;SHT31;68762;51.980;5.646;2024-02-15T15:00:53;18.4;64.7
79187;SHT31;68762;51.980;5.646;2024-02-15T15:03:25;18.4;64.9
79187;SHT31;68762;51.980;5.646;2024-02-15T15:05:55;18.3;65.5
79187;SHT31;68762;51.980;5.646;2024-02-15T15:09:52;18.3;65.1
79187;SHT31;68762;51.980;5.646;2024-02-15T15:14:24;18.2;65.2
79187;SHT31;68762;51.980;5.646;2024-02-15T15:16:54;18.2;65.4
79187;SHT31;68762;51.980;5.646;2024-02-15T15:19:23;18.1;66.0
79187;SHT31;68762;51.980;5.646;2024-02-15T15:21:51;18.1;65.9
79187;SHT31;68762;51.980;5.646;2024-02-15T15:24:20;18.1;65.3
79187;SHT31;68762;51.980;5.646;2024-02-15T15:26:48;18.1;65.5
79187;SHT31;68762;51.980;5.646;2024-02-15T15:29:17;18.0;65.8
79187;SHT31;68762;51.980;5.646;2024-02-15T15:31:46;18.0;66.0
79187;SHT31;68762;51.980;5.646;2024-02-15T15:34:15;18.0;66.3
79187;SHT31;68762;51.980;5.646;2024-02-15T15:36:46;18.0;65.7
79187;SHT31;68762;51.980;5.646;2024-02-15T15:39:16;17.9;66.1
79187;SHT31;68762;51.980;5.646;2024-02-15T15:41:46;17.9;65.9
79187;SHT31;68762;51.980;5.646;2024-02-15T15:44:15;17.9;66.2
79187;SHT31;68762;51.980;5.646;2024-02-15T15:46:43;17.9;65.7
79187;SHT31;68762;51.980;5.646;2024-02-15T15:49:12;17.9;65.6
79187;SHT31;68762;51.980;5.646;2024-02-15T15:51:43;17.8;66.5
79187;SHT31;68762;51.980;5.646;2024-02-15T15:54:13;17.8;65.9
79187;SHT31;68762;51.980;5.646;2024-02-15T15:56:41;17.8;66.4
79187;SHT31;68762;51.980;5.646;2024-02-15T15:59:10;17.8;65.6
79187;SHT31;68762;51.980;5.646;2024-02-15T16:01:50;17.8;66.1
79187;SHT31;68762;51.980;5.646;2024-02-15T16:04:19;17.8;66.3
79187;SHT31;68762;51.980;5.646;2024-02-15T16:06:48;17.7;65.8
79187;SHT31;68762;51.980;5.646;2024-02-15T16:09:17;17.7;66.0
79187;SHT31;68762;51.980;5.646;2024-02-15T16:11:46;17.7;65.7
79187;SHT31;68762;51.980;5.646;2024-02-15T16:14:16;17.7;66.1
79187;SHT31;68762;51.980;5.646;2024-02-15T16:16:44;17.6;66.2
79187;SHT31;68762;51.980;5.646;2024-02-15T16:19:13;17.6;66.5
79187;SHT31;68762;51.980;5.646;2024-02-15T16:21:41;17.6;66.1
79187;SHT31;68762;51.980;5.646;2024-02-15T16:24:10;17.5;66.3
79187;SHT31;68762;51.980;5.646;2024-02-15T16:26:39;17.5;66.0
79187;SHT31;68762;51.980;5.646;2024-02-15T16:29:07;17.5;66.2
79187;SHT31;68762;51.980;5.646;2024-02-15T16:31:36;17.5;66.1